sensor_id;sensor_type;location;lat;lon;timestamp;pressure;altitude;pressure_sealevel;temperature;humidity
71889;BME280;59762;49.998;14.858;2023-03-18T00:01:53;97250.69;;;3.74;53.71
71889;BME280;59762;49.998;14.858;2023-03-18T00:04:20;97241.06;;;3.84;53.02
71889;BME280;59762;49.998;14.858;2023-03-18T00:06:46;97247.78;;;3.88;53.04
71889;BME280;59762;49.998;14.858;2023-03-18T00:09:12;97236.50;;;3.86;52.94
71889;BME280;59762;49.998;14.858;2023-03-18T00:11:39;97239.75;;;3.89;52.47
71889;BME280;59762;49.998;14.858;2023-03-18T00:14:07;97245.06;;;3.78;53.16
71889;BME280;59762;49.998;14.858;2023-03-18T00:16:33;97237.38;;;3.75;53.56
71889;BME280;59762;49.998;14.858;2023-03-18T00:19:00;97243.72;;;3.62;54.17
71889;BME280;59762;49.998;14.858;2023-03-18T00:21:27;97247.69;;;3.56;54.90
71889;BME280;59762;49.998;14.858;2023-03-18T00:23:54;97242.91;;;3.61;53.83
71889;BME280;59762;49.998;14.858;2023-03-18T00:26:25;97239.28;;;3.62;54.53
71889;BME280;59762;49.998;14.858;2023-03-18T00:28:53;97238.78;;;3.68;53.68
71889;BME280;59762;49.998;14.858;2023-03-18T00:31:19;97241.44;;;3.68;53.38
71889;BME280;59762;49.998;14.858;2023-03-18T00:33:46;97241.81;;;3.64;53.70
71889;BME280;59762;49.998;14.858;2023-03-18T00:36:15;97243.38;;;3.44;54.80
71889;BME280;59762;49.998;14.858;2023-03-18T00:38:42;97244.31;;;3.54;54.75
71889;BME280;59762;49.998;14.858;2023-03-18T00:41:09;97239.63;;;3.58;54.22
71889;BME280;59762;49.998;14.858;2023-03-18T00:43:43;97239.63;;;3.58;54.15
71889;BME280;59762;49.998;14.858;2023-03-18T00:46:19;97245.88;;;3.57;54.40
71889;BME280;59762;49.998;14.858;2023-03-18T00:48:45;97250.53;;;3.42;55.83
71889;BME280;59762;49.998;14.858;2023-03-18T00:51:12;97240.00;;;3.42;55.26
71889;BME280;59762;49.998;14.858;2023-03-18T00:53:46;97239.50;;;3.26;55.74
71889;BME280;59762;49.998;14.858;2023-03-18T00:56:13;97234.84;;;3.30;55.86
71889;BME280;59762;49.998;14.858;2023-03-18T00:58:39;97238.44;;;3.29;55.93
71889;BME280;59762;49.998;14.858;2023-03-18T01:01:06;97240.34;;;3.27;54.38
71889;BME280;59762;49.998;14.858;2023-03-18T01:03:33;97243.78;;;3.05;57.11
71889;BME280;59762;49.998;14.858;2023-03-18T01:06:02;97241.09;;;2.94;56.53
71889;BME280;59762;49.998;14.858;2023-03-18T01:08:30;97245.00;;;3.23;55.17
71889;BME280;59762;49.998;14.858;2023-03-18T01:10:57;97236.59;;;3.07;56.83
71889;BME280;59762;49.998;14.858;2023-03-18T01:13:22;97239.81;;;3.00;58.69
71889;BME280;59762;49.998;14.858;2023-03-18T01:15:50;97239.06;;;2.87;58.20
71889;BME280;59762;49.998;14.858;2023-03-18T01:18:16;97237.81;;;2.80;57.83
71889;BME280;59762;49.998;14.858;2023-03-18T01:20:43;97242.41;;;2.89;57.97
71889;BME280;59762;49.998;14.858;2023-03-18T01:23:10;97235.78;;;2.72;58.13
71889;BME280;59762;49.998;14.858;2023-03-18T01:25:35;97234.97;;;2.83;56.48
71889;BME280;59762;49.998;14.858;2023-03-18T01:28:02;97235.44;;;2.77;58.25
71889;BME280;59762;49.998;14.858;2023-03-18T01:30:28;97239.22;;;2.62;60.41
71889;BME280;59762;49.998;14.858;2023-03-18T01:32:54;97241.31;;;2.46;60.46
71889;BME280;59762;49.998;14.858;2023-03-18T01:35:20;97246.44;;;2.47;61.17
71889;BME280;59762;49.998;14.858;2023-03-18T01:37:46;97242.25;;;2.45;59.86
71889;BME280;59762;49.998;14.858;2023-03-18T01:40:14;97244.75;;;2.35;62.03
71889;BME280;59762;49.998;14.858;2023-03-18T01:42:41;97247.69;;;2.31;62.28
71889;BME280;59762;49.998;14.858;2023-03-18T01:45:22;97248.16;;;2.25;61.22
71889;BME280;59762;49.998;14.858;2023-03-18T01:47:49;97253.31;;;2.26;61.53
71889;BME280;59762;49.998;14.858;2023-03-18T01:50:18;97254.03;;;2.28;60.46
71889;BME280;59762;49.998;14.858;2023-03-18T01:52:45;97257.91;;;2.35;61.27
71889;BME280;59762;49.998;14.858;2023-03-18T01:55:15;97259.97;;;2.19;62.74
71889;BME280;59762;49.998;14.858;2023-03-18T01:57:43;97249.88;;;2.13;62.04
71889;BME280;59762;49.998;14.858;2023-03-18T02:00:09;97253.91;;;2.06;62.04
71889;BME280;59762;49.998;14.858;2023-03-18T02:02:39;97252.28;;;2.16;63.08
71889;BME280;59762;49.998;14.858;2023-03-18T02:05:08;97244.38;;;2.16;62.93
71889;BME280;59762;49.998;14.858;2023-03-18T02:07:36;97241.34;;;2.10;64.19
71889;BME280;59762;49.998;14.858;2023-03-18T02:10:16;97240.63;;;2.08;64.68
71889;BME280;59762;49.998;14.858;2023-03-18T02:12:47;97245.53;;;2.25;62.03
71889;BME280;59762;49.998;14.858;2023-03-18T02:15:18;97254.13;;;2.27;60.86
71889;BME280;59762;49.998;14.858;2023-03-18T02:17:53;97247.13;;;2.15;61.35
71889;BME280;59762;49.998;14.858;2023-03-18T02:26:41;97249.38;;;2.32;61.38
71889;BME280;59762;49.998;14.858;2023-03-18T02:29:11;97244.66;;;2.01;63.14
71889;BME280;59762;49.998;14.858;2023-03-18T02:31:41;97247.88;;;2.17;61.00
71889;BME280;59762;49.998;14.858;2023-03-18T02:34:08;97245.22;;;2.17;62.04
71889;BME280;59762;49.998;14.858;2023-03-18T02:36:35;97240.47;;;2.22;61.21
71889;BME280;59762;49.998;14.858;2023-03-18T02:39:02;97242.31;;;2.32;60.25
71889;BME280;59762;49.998;14.858;2023-03-18T02:41:31;97244.25;;;2.30;60.17
71889;BME280;59762;49.998;14.858;2023-03-18T02:43:58;97250.78;;;2.25;61.57
71889;BME280;59762;49.998;14.858;2023-03-18T02:49:12;97246.41;;;2.36;59.00
71889;BME280;59762;49.998;14.858;2023-03-18T02:51:38;97246.63;;;2.33;59.15
71889;BME280;59762;49.998;14.858;2023-03-18T02:54:14;97249.72;;;2.27;60.33
71889;BME280;59762;49.998;14.858;2023-03-18T02:56:41;97255.81;;;2.28;59.12
71889;BME280;59762;49.998;14.858;2023-03-18T02:59:08;97258.41;;;2.17;60.72
71889;BME280;59762;49.998;14.858;2023-03-18T03:01:35;97258.00;;;2.10;62.30
71889;BME280;59762;49.998;14.858;2023-03-18T03:04:01;97254.00;;;2.05;61.17
71889;BME280;59762;49.998;14.858;2023-03-18T03:06:28;97254.50;;;2.10;61.43
71889;BME280;59762;49.998;14.858;2023-03-18T03:08:54;97254.91;;;2.16;60.09
71889;BME280;59762;49.998;14.858;2023-03-18T03:11:22;97262.50;;;2.21;60.63
71889;BME280;59762;49.998;14.858;2023-03-18T03:13:48;97271.56;;;2.17;61.31
71889;BME280;59762;49.998;14.858;2023-03-18T03:16:16;97271.88;;;2.12;60.95
71889;BME280;59762;49.998;14.858;2023-03-18T03:18:42;97271.28;;;2.09;61.05
71889;BME280;59762;49.998;14.858;2023-03-18T03:21:09;97287.63;;;2.01;62.70
71889;BME280;59762;49.998;14.858;2023-03-18T03:23:35;97291.94;;;2.02;61.85
71889;BME280;59762;49.998;14.858;2023-03-18T03:26:02;97287.53;;;1.90;62.90
71889;BME280;59762;49.998;14.858;2023-03-18T03:28:29;97289.72;;;2.09;60.35
71889;BME280;59762;49.998;14.858;2023-03-18T03:30:56;97285.19;;;2.11;59.81
71889;BME280;59762;49.998;14.858;2023-03-18T03:33:23;97287.63;;;1.89;61.52
71889;BME280;59762;49.998;14.858;2023-03-18T03:35:49;97287.88;;;1.86;61.78
71889;BME280;59762;49.998;14.858;2023-03-18T03:38:15;97286.41;;;1.82;61.73
71889;BME280;59762;49.998;14.858;2023-03-18T03:40:41;97286.41;;;1.82;62.15
71889;BME280;59762;49.998;14.858;2023-03-18T03:43:09;97287.47;;;1.79;61.92
71889;BME280;59762;49.998;14.858;2023-03-18T03:45:36;97284.84;;;1.79;62.15
71889;BME280;59762;49.998;14.858;2023-03-18T03:48:02;97295.63;;;2.00;60.43
71889;BME280;59762;49.998;14.858;2023-03-18T03:50:28;97298.66;;;2.06;60.20
71889;BME280;59762;49.998;14.858;2023-03-18T03:52:54;97298.91;;;1.91;60.70
71889;BME280;59762;49.998;14.858;2023-03-18T03:55:21;97290.50;;;1.86;61.20
71889;BME280;59762;49.998;14.858;2023-03-18T03:57:47;97294.09;;;1.72;62.98
71889;BME280;59762;49.998;14.858;2023-03-18T04:00:16;97299.47;;;1.83;61.08
71889;BME280;59762;49.998;14.858;2023-03-18T04:02:43;97302.31;;;1.80;61.26
71889;BME280;59762;49.998;14.858;2023-03-18T04:05:11;97308.00;;;1.74;61.72
71889;BME280;59762;49.998;14.858;2023-03-18T04:07:38;97310.94;;;1.70;62.75
71889;BME280;59762;49.998;14.858;2023-03-18T04:10:04;97313.44;;;1.84;60.75
71889;BME280;59762;49.998;14.858;2023-03-18T04:12:30;97312.22;;;1.77;61.69
71889;BME280;59762;49.998;14.858;2023-03-18T04:14:56;97312.28;;;1.88;60.82
71889;BME280;59762;49.998;14.858;2023-03-18T04:17:22;97317.88;;;1.71;62.01
71889;BME280;59762;49.998;14.858;2023-03-18T04:19:47;97321.38;;;1.71;61.83
71889;BME280;59762;49.998;14.858;2023-03-18T04:22:14;97320.09;;;1.64;62.69
71889;BME280;59762;49.998;14.858;2023-03-18T04:24:40;97323.28;;;1.44;63.96
71889;BME280;59762;49.998;14.858;2023-03-18T04:27:07;97320.13;;;1.39;64.68
71889;BME280;59762;49.998;14.858;2023-03-18T04:29:32;97318.13;;;1.43;64.25
71889;BME280;59762;49.998;14.858;2023-03-18T04:31:58;97326.41;;;1.37;64.48
71889;BME280;59762;49.998;14.858;2023-03-18T04:34:24;97329.91;;;1.37;64.27
71889;BME280;59762;49.998;14.858;2023-03-18T04:36:50;97326.75;;;1.20;64.76
71889;BME280;59762;49.998;14.858;2023-03-18T04:39:15;97329.69;;;1.15;65.70
71889;BME280;59762;49.998;14.858;2023-03-18T04:41:41;97335.13;;;1.12;66.09
71889;BME280;59762;49.998;14.858;2023-03-18T04:44:07;97335.13;;;1.12;67.02
71889;BME280;59762;49.998;14.858;2023-03-18T04:46:32;97333.34;;;1.00;67.38
71889;BME280;59762;49.998;14.858;2023-03-18T04:48:58;97340.22;;;0.89;69.02
71889;BME280;59762;49.998;14.858;2023-03-18T04:51:25;97342.84;;;0.89;67.04
71889;BME280;59762;49.998;14.858;2023-03-18T04:53:51;97329.75;;;1.01;69.63
71889;BME280;59762;49.998;14.858;2023-03-18T04:56:18;97344.25;;;0.94;66.90
71889;BME280;59762;49.998;14.858;2023-03-18T04:58:44;97351.78;;;0.86;67.73
71889;BME280;59762;49.998;14.858;2023-03-18T05:01:10;97353.88;;;0.81;69.71
71889;BME280;59762;49.998;14.858;2023-03-18T05:03:40;97344.31;;;0.80;69.31
71889;BME280;59762;49.998;14.858;2023-03-18T05:06:07;97344.84;;;0.85;69.43
71889;BME280;59762;49.998;14.858;2023-03-18T05:08:34;97342.84;;;0.89;71.26
71889;BME280;59762;49.998;14.858;2023-03-18T05:10:59;97344.66;;;0.88;70.30
71889;BME280;59762;49.998;14.858;2023-03-18T05:13:25;97334.59;;;0.95;68.13
71889;BME280;59762;49.998;14.858;2023-03-18T05:15:51;97340.28;;;1.01;67.86
71889;BME280;59762;49.998;14.858;2023-03-18T05:18:16;97335.75;;;1.03;65.95
71889;BME280;59762;49.998;14.858;2023-03-18T05:20:42;97342.50;;;1.07;68.21
71889;BME280;59762;49.998;14.858;2023-03-18T05:23:08;97337.13;;;1.09;67.75
71889;BME280;59762;49.998;14.858;2023-03-18T05:25:34;97338.63;;;1.25;66.05
71889;BME280;59762;49.998;14.858;2023-03-18T05:28:00;97342.97;;;1.26;67.33
71889;BME280;59762;49.998;14.858;2023-03-18T05:30:26;97338.13;;;1.33;65.34
71889;BME280;59762;49.998;14.858;2023-03-18T05:32:52;97344.53;;;1.41;66.80
71889;BME280;59762;49.998;14.858;2023-03-18T05:35:18;97343.06;;;1.50;65.52
71889;BME280;59762;49.998;14.858;2023-03-18T05:37:44;97338.53;;;1.52;66.27
71889;BME280;59762;49.998;14.858;2023-03-18T05:40:10;97343.72;;;1.53;66.37
71889;BME280;59762;49.998;14.858;2023-03-18T05:42:38;97342.13;;;1.63;64.65
71889;BME280;59762;49.998;14.858;2023-03-18T05:45:06;97341.81;;;1.68;64.55
71889;BME280;59762;49.998;14.858;2023-03-18T05:47:32;97341.38;;;1.74;63.63
71889;BME280;59762;49.998;14.858;2023-03-18T05:49:58;97338.44;;;1.78;64.42
71889;BME280;59762;49.998;14.858;2023-03-18T05:52:24;97345.75;;;1.98;62.98
71889;BME280;59762;49.998;14.858;2023-03-18T05:54:50;97345.97;;;2.08;62.55
71889;BME280;59762;49.998;14.858;2023-03-18T05:57:16;97348.34;;;2.23;61.93
71889;BME280;59762;49.998;14.858;2023-03-18T05:59:42;97351.84;;;2.47;60.16
71889;BME280;59762;49.998;14.858;2023-03-18T06:02:08;97345.75;;;2.47;60.66
71889;BME280;59762;49.998;14.858;2023-03-18T06:04:34;97343.03;;;2.48;60.75
71889;BME280;59762;49.998;14.858;2023-03-18T06:07:00;97344.25;;;2.55;60.23
71889;BME280;59762;49.998;14.858;2023-03-18T06:09:27;97342.63;;;2.65;59.65
71889;BME280;59762;49.998;14.858;2023-03-18T06:11:53;97347.75;;;2.79;58.63
71889;BME280;59762;49.998;14.858;2023-03-18T06:14:19;97346.44;;;2.85;58.56
71889;BME280;59762;49.998;14.858;2023-03-18T06:16:45;97345.63;;;2.95;57.62
71889;BME280;59762;49.998;14.858;2023-03-18T06:19:11;97342.09;;;3.07;57.91
71889;BME280;59762;49.998;14.858;2023-03-18T06:21:38;97340.97;;;3.22;56.81
71889;BME280;59762;49.998;14.858;2023-03-18T06:24:05;97341.47;;;3.38;56.18
71889;BME280;59762;49.998;14.858;2023-03-18T06:26:31;97345.81;;;3.50;56.43
71889;BME280;59762;49.998;14.858;2023-03-18T06:28:57;97338.63;;;3.52;56.74
71889;BME280;59762;49.998;14.858;2023-03-18T06:31:24;97350.66;;;3.67;55.58
71889;BME280;59762;49.998;14.858;2023-03-18T06:33:50;97356.19;;;3.86;54.31
71889;BME280;59762;49.998;14.858;2023-03-18T06:36:16;97354.06;;;3.91;53.93
71889;BME280;59762;49.998;14.858;2023-03-18T06:38:44;97351.06;;;4.07;54.21
71889;BME280;59762;49.998;14.858;2023-03-18T06:41:10;97349.72;;;4.23;53.51
71889;BME280;59762;49.998;14.858;2023-03-18T06:43:36;97356.06;;;4.43;52.90
71889;BME280;59762;49.998;14.858;2023-03-18T06:46:02;97353.22;;;4.77;52.31
71889;BME280;59762;49.998;14.858;2023-03-18T06:48:29;97364.25;;;4.93;51.49
71889;BME280;59762;49.998;14.858;2023-03-18T06:50:54;97358.84;;;4.95;51.43
71889;BME280;59762;49.998;14.858;2023-03-18T06:53:21;97357.91;;;5.16;51.33
71889;BME280;59762;49.998;14.858;2023-03-18T06:55:47;97343.56;;;5.19;51.91
71889;BME280;59762;49.998;14.858;2023-03-18T06:58:13;97344.84;;;5.35;49.74
71889;BME280;59762;49.998;14.858;2023-03-18T07:00:38;97351.44;;;5.41;51.07
71889;BME280;59762;49.998;14.858;2023-03-18T07:03:06;97346.31;;;5.28;50.77
71889;BME280;59762;49.998;14.858;2023-03-18T07:05:32;97346.63;;;5.35;50.54
71889;BME280;59762;49.998;14.858;2023-03-18T07:07:58;97355.44;;;5.04;49.55
71889;BME280;59762;49.998;14.858;2023-03-18T07:10:26;97352.81;;;5.24;50.59
71889;BME280;59762;49.998;14.858;2023-03-18T07:12:53;97359.94;;;5.24;51.06
71889;BME280;59762;49.998;14.858;2023-03-18T07:15:20;97359.38;;;5.09;51.30
71889;BME280;59762;49.998;14.858;2023-03-18T07:17:48;97369.75;;;5.01;50.24
71889;BME280;59762;49.998;14.858;2023-03-18T07:20:14;97365.94;;;5.26;50.30
71889;BME280;59762;49.998;14.858;2023-03-18T07:22:41;97372.31;;;5.23;50.62
71889;BME280;59762;49.998;14.858;2023-03-18T07:25:08;97378.25;;;5.47;50.63
71889;BME280;59762;49.998;14.858;2023-03-18T07:27:36;97387.63;;;5.72;50.53
71889;BME280;59762;49.998;14.858;2023-03-18T07:30:02;97381.47;;;5.51;50.21
71889;BME280;59762;49.998;14.858;2023-03-18T07:32:28;97384.25;;;5.90;50.71
71889;BME280;59762;49.998;14.858;2023-03-18T07:34:56;97387.50;;;5.73;49.15
71889;BME280;59762;49.998;14.858;2023-03-18T07:37:24;97386.56;;;5.63;49.58
71889;BME280;59762;49.998;14.858;2023-03-18T07:39:49;97389.13;;;6.06;49.23
71889;BME280;59762;49.998;14.858;2023-03-18T07:42:17;97392.34;;;6.09;48.68
71889;BME280;59762;49.998;14.858;2023-03-18T07:44:43;97394.00;;;6.10;48.37
71889;BME280;59762;49.998;14.858;2023-03-18T07:47:08;97391.28;;;6.01;48.15
71889;BME280;59762;49.998;14.858;2023-03-18T07:49:34;97396.19;;;6.26;49.42
71889;BME280;59762;49.998;14.858;2023-03-18T07:52:00;97400.34;;;6.19;48.69
71889;BME280;59762;49.998;14.858;2023-03-18T07:54:26;97397.81;;;6.47;48.25
71889;BME280;59762;49.998;14.858;2023-03-18T07:56:52;97391.75;;;6.06;46.63
71889;BME280;59762;49.998;14.858;2023-03-18T07:59:18;97398.78;;;6.46;48.54
71889;BME280;59762;49.998;14.858;2023-03-18T08:01:45;97395.09;;;6.68;45.60
71889;BME280;59762;49.998;14.858;2023-03-18T08:04:11;97393.38;;;6.57;47.36
71889;BME280;59762;49.998;14.858;2023-03-18T08:06:37;97394.66;;;6.63;47.11
71889;BME280;59762;49.998;14.858;2023-03-18T08:09:03;97390.56;;;6.49;47.39
71889;BME280;59762;49.998;14.858;2023-03-18T08:11:30;97389.81;;;6.38;47.25
71889;BME280;59762;49.998;14.858;2023-03-18T08:13:57;97387.53;;;6.63;45.92
71889;BME280;59762;49.998;14.858;2023-03-18T08:16:24;97380.94;;;7.07;47.25
71889;BME280;59762;49.998;14.858;2023-03-18T08:18:50;97369.69;;;6.65;45.74
71889;BME280;59762;49.998;14.858;2023-03-18T08:21:16;97379.94;;;6.49;46.31
71889;BME280;59762;49.998;14.858;2023-03-18T08:23:41;97383.22;;;6.62;47.41
71889;BME280;59762;49.998;14.858;2023-03-18T08:26:07;97383.84;;;6.45;47.04
71889;BME280;59762;49.998;14.858;2023-03-18T08:28:33;97374.22;;;6.93;47.79
71889;BME280;59762;49.998;14.858;2023-03-18T08:30:59;97378.00;;;7.00;47.96
71889;BME280;59762;49.998;14.858;2023-03-18T08:33:26;97378.53;;;6.45;46.80
71889;BME280;59762;49.998;14.858;2023-03-18T08:35:54;97377.34;;;6.68;47.31
71889;BME280;59762;49.998;14.858;2023-03-18T08:38:21;97371.72;;;7.20;45.89
71889;BME280;59762;49.998;14.858;2023-03-18T08:40:48;97381.66;;;7.18;46.23
71889;BME280;59762;49.998;14.858;2023-03-18T08:43:13;97375.66;;;7.54;45.61
71889;BME280;59762;49.998;14.858;2023-03-18T08:45:39;97379.69;;;7.68;45.22
71889;BME280;59762;49.998;14.858;2023-03-18T08:48:05;97383.84;;;7.99;45.25
71889;BME280;59762;49.998;14.858;2023-03-18T08:50:33;97380.31;;;8.08;45.38
71889;BME280;59762;49.998;14.858;2023-03-18T08:53:00;97377.69;;;7.98;44.58
71889;BME280;59762;49.998;14.858;2023-03-18T08:55:34;97373.81;;;7.83;45.11
71889;BME280;59762;49.998;14.858;2023-03-18T08:58:04;97377.41;;;7.92;44.99
71889;BME280;59762;49.998;14.858;2023-03-18T09:00:32;97376.63;;;7.63;45.35
71889;BME280;59762;49.998;14.858;2023-03-18T09:02:57;97372.88;;;7.37;46.08
71889;BME280;59762;49.998;14.858;2023-03-18T09:05:23;97370.91;;;7.58;45.21
71889;BME280;59762;49.998;14.858;2023-03-18T09:07:50;97373.91;;;8.01;44.94
71889;BME280;59762;49.998;14.858;2023-03-18T09:10:18;97375.06;;;7.89;44.53
71889;BME280;59762;49.998;14.858;2023-03-18T09:12:45;97385.03;;;7.77;45.32
71889;BME280;59762;49.998;14.858;2023-03-18T09:15:12;97389.31;;;7.88;44.41
71889;BME280;59762;49.998;14.858;2023-03-18T09:17:39;97389.47;;;7.86;44.63
71889;BME280;59762;49.998;14.858;2023-03-18T09:20:09;97388.16;;;8.09;43.93
71889;BME280;59762;49.998;14.858;2023-03-18T09:22:37;97392.34;;;8.12;44.63
71889;BME280;59762;49.998;14.858;2023-03-18T09:25:04;97387.09;;;7.83;44.63
71889;BME280;59762;49.998;14.858;2023-03-18T09:27:29;97381.00;;;8.29;44.28
71889;BME280;59762;49.998;14.858;2023-03-18T09:29:55;97382.75;;;8.48;43.41
71889;BME280;59762;49.998;14.858;2023-03-18T09:32:21;97378.66;;;8.17;43.74
71889;BME280;59762;49.998;14.858;2023-03-18T09:34:47;97378.50;;;8.55;43.29
71889;BME280;59762;49.998;14.858;2023-03-18T09:37:13;97380.31;;;8.91;43.29
71889;BME280;59762;49.998;14.858;2023-03-18T09:39:40;97384.19;;;8.69;42.97
71889;BME280;59762;49.998;14.858;2023-03-18T09:44:56;97381.78;;;7.93;44.92
71889;BME280;59762;49.998;14.858;2023-03-18T09:47:39;97388.03;;;8.57;43.99
71889;BME280;59762;49.998;14.858;2023-03-18T09:52:45;97373.16;;;8.64;42.32
71889;BME280;59762;49.998;14.858;2023-03-18T09:55:24;97371.28;;;9.01;43.71
71889;BME280;59762;49.998;14.858;2023-03-18T09:57:55;97373.06;;;8.56;43.41
71889;BME280;59762;49.998;14.858;2023-03-18T10:00:32;97374.25;;;9.16;43.78
71889;BME280;59762;49.998;14.858;2023-03-18T10:03:03;97368.00;;;9.25;43.20
71889;BME280;59762;49.998;14.858;2023-03-18T10:19:34;97376.25;;;9.31;42.80
71889;BME280;59762;49.998;14.858;2023-03-18T10:24:49;97377.84;;;9.59;43.40
71889;BME280;59762;49.998;14.858;2023-03-18T10:27:37;97385.13;;;9.22;44.80
71889;BME280;59762;49.998;14.858;2023-03-18T10:35:51;97374.75;;;10.07;42.99
71889;BME280;59762;49.998;14.858;2023-03-18T10:38:21;97377.63;;;9.35;43.85
71889;BME280;59762;49.998;14.858;2023-03-18T10:40:48;97378.31;;;9.37;43.76
71889;BME280;59762;49.998;14.858;2023-03-18T10:43:19;97382.34;;;9.59;44.62
71889;BME280;59762;49.998;14.858;2023-03-18T10:45:47;97392.28;;;9.04;43.49
71889;BME280;59762;49.998;14.858;2023-03-18T10:54:08;97386.38;;;9.10;42.33
71889;BME280;59762;49.998;14.858;2023-03-18T10:56:35;97371.59;;;9.51;42.75
71889;BME280;59762;49.998;14.858;2023-03-18T10:59:08;97380.72;;;9.83;42.39
71889;BME280;59762;49.998;14.858;2023-03-18T11:01:35;97388.19;;;10.40;42.39
71889;BME280;59762;49.998;14.858;2023-03-18T11:04:04;97381.94;;;10.32;42.21
71889;BME280;59762;49.998;14.858;2023-03-18T11:06:50;97386.28;;;10.33;42.25
71889;BME280;59762;49.998;14.858;2023-03-18T11:09:19;97382.56;;;10.51;42.15
71889;BME280;59762;49.998;14.858;2023-03-18T11:11:46;97381.06;;;10.23;41.88
71889;BME280;59762;49.998;14.858;2023-03-18T11:14:17;97382.09;;;10.05;41.68
71889;BME280;59762;49.998;14.858;2023-03-18T11:16:55;97379.44;;;10.30;42.92
71889;BME280;59762;49.998;14.858;2023-03-18T11:19:31;97376.97;;;11.04;39.16
71889;BME280;59762;49.998;14.858;2023-03-18T11:22:02;97371.41;;;10.56;41.56
71889;BME280;59762;49.998;14.858;2023-03-18T11:24:29;97369.84;;;10.20;41.53
71889;BME280;59762;49.998;14.858;2023-03-18T11:27:10;97364.03;;;10.91;40.94
71889;BME280;59762;49.998;14.858;2023-03-18T11:29:58;97363.53;;;10.88;41.00
71889;BME280;59762;49.998;14.858;2023-03-18T11:32:33;97362.91;;;11.02;41.65
71889;BME280;59762;49.998;14.858;2023-03-18T11:35:01;97357.81;;;10.41;41.53
71889;BME280;59762;49.998;14.858;2023-03-18T11:37:35;97350.25;;;11.04;42.31
71889;BME280;59762;49.998;14.858;2023-03-18T11:40:21;97350.66;;;10.83;41.17
71889;BME280;59762;49.998;14.858;2023-03-18T11:43:02;97349.06;;;10.57;42.10
71889;BME280;59762;49.998;14.858;2023-03-18T11:45:53;97348.09;;;10.66;41.21
71889;BME280;59762;49.998;14.858;2023-03-18T11:51:03;97340.59;;;11.27;39.72
71889;BME280;59762;49.998;14.858;2023-03-18T11:53:32;97333.97;;;10.81;40.72
71889;BME280;59762;49.998;14.858;2023-03-18T11:59:04;97330.53;;;11.05;40.85
71889;BME280;59762;49.998;14.858;2023-03-18T12:04:39;97333.06;;;10.65;40.09
71889;BME280;59762;49.998;14.858;2023-03-18T12:07:35;97323.72;;;10.61;41.39
71889;BME280;59762;49.998;14.858;2023-03-18T12:10:33;97327.34;;;10.93;41.78
71889;BME280;59762;49.998;14.858;2023-03-18T12:18:35;97324.22;;;11.14;41.46
71889;BME280;59762;49.998;14.858;2023-03-18T12:21:26;97318.34;;;11.02;42.56
71889;BME280;59762;49.998;14.858;2023-03-18T12:32:29;97308.94;;;10.90;40.57
71889;BME280;59762;49.998;14.858;2023-03-18T12:45:46;97314.84;;;11.10;40.91
71889;BME280;59762;49.998;14.858;2023-03-18T12:48:15;97310.19;;;11.12;41.54
71889;BME280;59762;49.998;14.858;2023-03-18T12:50:52;97319.38;;;11.25;41.87
71889;BME280;59762;49.998;14.858;2023-03-18T12:53:29;97309.00;;;10.57;41.99
71889;BME280;59762;49.998;14.858;2023-03-18T12:56:02;97314.59;;;10.87;41.47
71889;BME280;59762;49.998;14.858;2023-03-18T12:58:31;97308.47;;;10.95;41.93
71889;BME280;59762;49.998;14.858;2023-03-18T13:01:23;97313.16;;;10.51;42.10
71889;BME280;59762;49.998;14.858;2023-03-18T13:03:56;97308.19;;;10.64;43.53
71889;BME280;59762;49.998;14.858;2023-03-18T13:06:27;97305.44;;;10.40;42.97
71889;BME280;59762;49.998;14.858;2023-03-18T13:12:07;97310.81;;;10.98;43.01
71889;BME280;59762;49.998;14.858;2023-03-18T13:17:06;97314.38;;;11.30;42.54
71889;BME280;59762;49.998;14.858;2023-03-18T13:19:35;97311.56;;;11.56;41.65
71889;BME280;59762;49.998;14.858;2023-03-18T13:33:48;97296.44;;;10.91;42.25
71889;BME280;59762;49.998;14.858;2023-03-18T13:44:26;97285.97;;;11.05;43.45
71889;BME280;59762;49.998;14.858;2023-03-18T13:47:01;97282.09;;;11.00;42.86
71889;BME280;59762;49.998;14.858;2023-03-18T13:49:30;97278.28;;;11.10;43.23
71889;BME280;59762;49.998;14.858;2023-03-18T13:51:58;97280.78;;;11.04;42.56
71889;BME280;59762;49.998;14.858;2023-03-18T13:54:32;97268.28;;;11.20;43.08
71889;BME280;59762;49.998;14.858;2023-03-18T13:59:44;97272.13;;;11.18;45.00
71889;BME280;59762;49.998;14.858;2023-03-18T14:04:50;97278.31;;;11.42;44.03
71889;BME280;59762;49.998;14.858;2023-03-18T14:07:20;97274.94;;;11.56;42.92
71889;BME280;59762;49.998;14.858;2023-03-18T14:09:59;97267.44;;;11.44;42.55
71889;BME280;59762;49.998;14.858;2023-03-18T14:15:27;97272.44;;;11.55;43.83
71889;BME280;59762;49.998;14.858;2023-03-18T14:17:56;97270.44;;;11.33;42.56
71889;BME280;59762;49.998;14.858;2023-03-18T14:20:37;97268.09;;;11.54;43.79
71889;BME280;59762;49.998;14.858;2023-03-18T14:25:49;97259.09;;;11.39;44.36
71889;BME280;59762;49.998;14.858;2023-03-18T14:28:24;97265.09;;;11.33;43.58
71889;BME280;59762;49.998;14.858;2023-03-18T14:31:12;97262.44;;;11.49;44.66
71889;BME280;59762;49.998;14.858;2023-03-18T14:39:13;97260.28;;;11.36;43.39
71889;BME280;59762;49.998;14.858;2023-03-18T14:41:43;97261.94;;;11.37;44.76
71889;BME280;59762;49.998;14.858;2023-03-18T14:44:46;97260.41;;;11.59;43.20
71889;BME280;59762;49.998;14.858;2023-03-18T14:47:35;97254.44;;;11.65;43.11
71889;BME280;59762;49.998;14.858;2023-03-18T14:50:12;97254.13;;;11.60;44.04
71889;BME280;59762;49.998;14.858;2023-03-18T14:52:42;97259.91;;;11.55;43.63
71889;BME280;59762;49.998;14.858;2023-03-18T14:55:18;97249.06;;;11.41;43.84
71889;BME280;59762;49.998;14.858;2023-03-18T14:57:45;97257.94;;;11.41;43.55
71889;BME280;59762;49.998;14.858;2023-03-18T15:00:15;97258.91;;;11.24;45.39
71889;BME280;59762;49.998;14.858;2023-03-18T15:02:43;97263.56;;;11.22;44.98
71889;BME280;59762;49.998;14.858;2023-03-18T15:05:15;97256.25;;;11.24;43.81